createdAt,value
2018-03-23T00:00:30.902Z,1004.77
2018-03-23T00:01:30.830Z,1004.80
2018-03-23T00:03:25.160Z,1004.77
2018-03-23T00:04:25.133Z,1004.77
2018-03-23T00:06:18.513Z,1004.79
2018-03-23T00:07:18.439Z,1004.79
2018-03-23T00:09:11.823Z,1004.76
2018-03-23T00:10:11.749Z,1004.75
2018-03-23T00:12:05.081Z,1004.73
2018-03-23T00:13:05.063Z,1004.71
2018-03-23T00:14:58.431Z,1004.72
2018-03-23T00:15:58.359Z,1004.72
2018-03-23T00:17:51.694Z,1004.70
2018-03-23T00:18:51.674Z,1004.70
2018-03-23T00:20:45.048Z,1004.66
2018-03-23T00:21:44.974Z,1004.65
2018-03-23T00:23:38.307Z,1004.70
2018-03-23T00:24:38.280Z,1004.67
2018-03-23T00:26:31.664Z,1004.68
2018-03-23T00:27:31.584Z,1004.71
2018-03-23T00:29:24.983Z,1004.64
2018-03-23T00:30:24.892Z,1004.66
2018-03-23T00:32:18.228Z,1004.62
2018-03-23T00:33:18.198Z,1004.57
2018-03-23T00:35:12.576Z,1004.63
2018-03-23T00:36:12.504Z,1004.64
2018-03-23T00:38:06.838Z,1004.64
2018-03-23T00:39:06.860Z,1004.63
2018-03-23T00:41:01.189Z,1004.58
2018-03-23T00:42:01.114Z,1004.54
2018-03-23T00:43:54.502Z,1004.57
2018-03-23T00:44:54.418Z,1004.55
2018-03-23T00:46:48.799Z,1004.59
2018-03-23T00:47:48.724Z,1004.53
2018-03-23T00:49:43.106Z,1004.49
2018-03-23T00:50:43.032Z,1004.51
2018-03-23T00:52:36.373Z,1004.51
2018-03-23T00:53:36.346Z,1004.55
2018-03-23T00:55:29.734Z,1004.46
2018-03-23T00:56:29.670Z,1004.45
2018-03-23T00:58:22.986Z,1004.47
2018-03-23T00:59:22.960Z,1004.48
2018-03-23T01:01:16.340Z,1004.46
2018-03-23T01:02:16.268Z,1004.43
2018-03-23T01:04:09.672Z,1004.41
2018-03-23T01:05:09.579Z,1004.40
2018-03-23T01:07:02.916Z,1004.37
2018-03-23T01:08:02.888Z,1004.35
2018-03-23T01:09:56.266Z,1004.35
2018-03-23T01:10:56.194Z,1004.33
2018-03-23T01:12:49.533Z,1004.33
2018-03-23T01:13:49.498Z,1004.36
2018-03-23T01:15:42.888Z,1004.30
2018-03-23T01:16:42.807Z,1004.29
2018-03-23T01:18:36.142Z,1004.29
2018-03-23T01:19:36.114Z,1004.31
2018-03-23T01:21:29.503Z,1004.29
2018-03-23T01:22:29.428Z,1004.28
2018-03-23T01:24:23.812Z,1004.27
2018-03-23T01:25:23.727Z,1004.30
2018-03-23T01:27:17.059Z,1004.26
2018-03-23T01:28:17.029Z,1004.30
2018-03-23T01:30:10.418Z,1004.23
2018-03-23T01:31:10.339Z,1004.22
2018-03-23T01:33:03.675Z,1004.21
2018-03-23T01:34:03.645Z,1004.20
2018-03-23T01:35:57.024Z,1004.17
2018-03-23T01:36:56.951Z,1004.16
2018-03-23T01:38:50.284Z,1004.16
2018-03-23T01:39:50.258Z,1004.16
2018-03-23T01:41:43.634Z,1004.17
2018-03-23T01:42:43.561Z,1004.18
2018-03-23T01:44:36.948Z,1004.12
2018-03-23T01:45:36.870Z,1004.12
2018-03-23T01:47:30.246Z,1004.12
2018-03-23T01:48:30.177Z,1004.08
2018-03-23T01:50:23.578Z,1004.02
2018-03-23T01:51:23.488Z,1004.05
2018-03-23T01:53:16.826Z,1004.07
2018-03-23T01:54:16.794Z,1004.06
2018-03-23T01:56:10.177Z,1004.07
2018-03-23T01:57:10.153Z,1004.07
2018-03-23T01:59:03.437Z,1004.04
2018-03-23T02:00:03.410Z,1004.08
2018-03-23T02:01:56.791Z,1004.04
2018-03-23T02:02:56.719Z,1004.06
2018-03-23T02:04:50.097Z,1004.01
2018-03-23T02:05:50.027Z,1004.00
2018-03-23T02:07:43.394Z,1003.96
2018-03-23T02:08:43.326Z,1003.95
2018-03-23T02:10:36.705Z,1003.93
2018-03-23T02:11:36.644Z,1003.90
2018-03-23T02:13:29.968Z,1003.88
2018-03-23T02:14:29.941Z,1003.87
2018-03-23T02:16:23.321Z,1003.88
2018-03-23T02:17:23.246Z,1003.87
2018-03-23T02:19:16.577Z,1003.82
2018-03-23T02:20:16.551Z,1003.83
2018-03-23T02:22:09.942Z,1003.80
2018-03-23T02:23:09.858Z,1003.80
2018-03-23T02:25:03.248Z,1003.78
2018-03-23T02:26:03.172Z,1003.77
2018-03-23T02:27:56.505Z,1003.75
2018-03-23T02:28:56.533Z,1003.78
2018-03-23T02:30:49.866Z,1003.71
2018-03-23T02:31:49.785Z,1003.71
2018-03-23T02:33:43.116Z,1003.71
2018-03-23T02:34:43.093Z,1003.67
2018-03-23T02:36:37.471Z,1003.65
2018-03-23T02:37:37.395Z,1003.65
2018-03-23T02:39:31.726Z,1003.67
2018-03-23T02:40:31.699Z,1003.61
2018-03-23T02:42:25.079Z,1003.59
2018-03-23T02:43:25.006Z,1003.57
2018-03-23T02:45:19.388Z,1003.53
2018-03-23T02:46:19.314Z,1003.55
2018-03-23T02:48:12.648Z,1003.50
2018-03-23T02:49:12.615Z,1003.44
2018-03-23T02:51:05.997Z,1003.41
2018-03-23T02:52:05.926Z,1003.46
2018-03-23T02:53:59.253Z,1003.41
2018-03-23T02:54:59.247Z,1003.43
2018-03-23T02:56:52.614Z,1003.40
2018-03-23T02:57:52.540Z,1003.42
2018-03-23T02:59:45.876Z,1003.37
2018-03-23T03:00:45.844Z,1003.35
2018-03-23T03:02:39.244Z,1003.38
2018-03-23T03:03:39.161Z,1003.37
2018-03-23T03:05:32.538Z,1003.34
2018-03-23T03:06:32.464Z,1003.38
2018-03-23T03:08:25.837Z,1003.35
2018-03-23T03:09:25.804Z,1003.36
2018-03-23T03:11:19.195Z,1003.35
2018-03-23T03:12:19.079Z,1003.33
2018-03-23T03:14:12.435Z,1003.29
2018-03-23T03:15:12.393Z,1003.30
2018-03-23T03:17:05.833Z,1003.30
2018-03-23T03:18:05.694Z,1003.29
2018-03-23T03:19:59.054Z,1003.27
2018-03-23T03:20:59.019Z,1003.29
2018-03-23T03:22:52.388Z,1003.27
2018-03-23T03:23:52.296Z,1003.26
2018-03-23T03:25:45.674Z,1003.27
2018-03-23T03:26:45.605Z,1003.24
2018-03-23T03:28:38.934Z,1003.24
2018-03-23T03:29:38.904Z,1003.26
2018-03-23T03:31:32.283Z,1003.20
2018-03-23T03:32:32.209Z,1003.17
2018-03-23T03:34:25.578Z,1003.14
2018-03-23T03:35:25.513Z,1003.10
2018-03-23T03:37:18.892Z,1003.09
2018-03-23T03:38:18.818Z,1003.08
2018-03-23T03:40:12.160Z,1003.06
2018-03-23T03:41:12.126Z,1003.05
2018-03-23T03:43:05.506Z,1003.04
2018-03-23T03:44:05.433Z,1003.04
2018-03-23T03:45:58.810Z,1003.00
2018-03-23T03:46:58.737Z,1003.00
2018-03-23T03:48:52.069Z,1002.99
2018-03-23T03:49:52.040Z,1003.02
2018-03-23T03:51:45.418Z,1003.01
2018-03-23T03:52:45.346Z,1002.98
2018-03-23T03:54:38.679Z,1002.96
2018-03-23T03:55:38.649Z,1002.96
2018-03-23T03:57:32.031Z,1002.95
2018-03-23T03:58:31.954Z,1002.96
2018-03-23T04:00:25.293Z,1002.91
2018-03-23T04:01:25.265Z,1002.94
2018-03-23T04:03:18.645Z,1002.91
2018-03-23T04:04:18.569Z,1002.91
2018-03-23T04:06:12.001Z,1002.92
2018-03-23T04:07:11.873Z,1002.90
2018-03-23T04:09:05.211Z,1002.92
2018-03-23T04:10:05.180Z,1002.96
2018-03-23T04:11:58.570Z,1002.90
2018-03-23T04:12:58.492Z,1002.91
2018-03-23T04:14:51.847Z,1002.89
2018-03-23T04:15:51.798Z,1002.89
2018-03-23T04:17:45.176Z,1002.88
2018-03-23T04:18:45.124Z,1002.82
2018-03-23T04:20:38.437Z,1002.75
2018-03-23T04:21:38.409Z,1002.82
2018-03-23T04:23:31.790Z,1002.81
2018-03-23T04:24:31.722Z,1002.81
2018-03-23T04:26:25.116Z,1002.78
2018-03-23T04:27:25.020Z,1002.81
2018-03-23T04:29:18.362Z,1002.74
2018-03-23T04:30:18.336Z,1002.76
2018-03-23T04:32:11.714Z,1002.71
2018-03-23T04:33:11.642Z,1002.71
2018-03-23T04:35:04.976Z,1002.72
2018-03-23T04:36:04.957Z,1002.67
2018-03-23T04:37:58.326Z,1002.72
2018-03-23T04:38:58.324Z,1002.65
2018-03-23T04:40:51.587Z,1002.69
2018-03-23T04:41:51.560Z,1002.66
2018-03-23T04:43:44.940Z,1002.63
2018-03-23T04:44:44.869Z,1002.64
2018-03-23T04:46:38.246Z,1002.61
2018-03-23T04:47:38.172Z,1002.62
2018-03-23T04:49:31.507Z,1002.55
2018-03-23T04:50:31.478Z,1002.55
2018-03-23T04:52:24.855Z,1002.55
2018-03-23T04:53:24.785Z,1002.51
2018-03-23T04:55:18.115Z,1002.47
2018-03-23T04:56:18.088Z,1002.46
2018-03-23T04:58:11.469Z,1002.45
2018-03-23T04:59:11.397Z,1002.44
2018-03-23T05:01:05.735Z,1002.41
2018-03-23T05:02:05.703Z,1002.38
2018-03-23T05:03:59.085Z,1002.38
2018-03-23T05:04:59.010Z,1002.40
2018-03-23T05:06:52.392Z,1002.39
2018-03-23T05:07:52.316Z,1002.39
2018-03-23T05:09:45.649Z,1002.34
2018-03-23T05:10:45.624Z,1002.36
2018-03-23T05:12:39.000Z,1002.32
2018-03-23T05:13:38.926Z,1002.29
2018-03-23T05:15:36.502Z,1002.28
2018-03-23T05:16:36.479Z,1002.26
2018-03-23T05:18:29.855Z,1002.28
2018-03-23T05:19:29.782Z,1002.26
2018-03-23T05:21:23.115Z,1002.23
2018-03-23T05:22:23.086Z,1002.26
2018-03-23T05:24:16.465Z,1002.26
2018-03-23T05:25:16.398Z,1002.26
2018-03-23T05:27:09.770Z,1002.24
2018-03-23T05:28:09.702Z,1002.22
2018-03-23T05:30:03.031Z,1002.14
2018-03-23T05:31:03.003Z,1002.16
2018-03-23T05:32:56.384Z,1002.17
2018-03-23T05:33:56.312Z,1002.15
2018-03-23T05:35:49.643Z,1002.16
2018-03-23T05:36:49.621Z,1002.16
2018-03-23T05:38:42.997Z,1002.16
2018-03-23T05:39:42.922Z,1002.16
2018-03-23T05:41:36.269Z,1002.11
2018-03-23T05:42:36.231Z,1002.13
2018-03-23T05:44:29.627Z,1002.15
2018-03-23T05:45:29.554Z,1002.12
2018-03-23T05:47:23.915Z,1002.11
2018-03-23T05:48:23.841Z,1002.12
2018-03-23T05:50:17.172Z,1002.13
2018-03-23T05:51:17.220Z,1002.12
2018-03-23T05:53:10.616Z,1002.13
2018-03-23T05:54:10.505Z,1002.12
2018-03-23T05:56:03.832Z,1002.13
2018-03-23T05:57:03.762Z,1002.12
2018-03-23T05:58:58.152Z,1002.10
2018-03-23T05:59:58.073Z,1002.11
2018-03-23T06:01:52.466Z,1002.06
2018-03-23T06:02:52.381Z,1002.11
2018-03-23T06:04:46.769Z,1002.05
2018-03-23T06:05:46.699Z,1002.06
2018-03-23T06:07:40.082Z,1002.05
2018-03-23T06:08:40.082Z,1002.03
2018-03-23T06:10:33.338Z,1002.04
2018-03-23T06:11:33.310Z,1002.04
2018-03-23T06:13:26.690Z,1002.05
2018-03-23T06:14:26.619Z,1002.06
2018-03-23T06:16:20.005Z,1002.01
2018-03-23T06:17:19.948Z,1001.98
2018-03-23T06:19:13.413Z,1001.96
2018-03-23T06:20:13.297Z,1002.01
2018-03-23T06:22:06.651Z,1002.01
2018-03-23T06:23:06.565Z,1001.99
2018-03-23T06:25:00.053Z,1001.99
2018-03-23T06:25:59.873Z,1001.98
2018-03-23T06:27:53.379Z,1001.96
2018-03-23T06:28:53.224Z,1001.95
2018-03-23T06:30:46.548Z,1001.92
2018-03-23T06:31:46.490Z,1001.95
2018-03-23T06:33:39.871Z,1001.94
2018-03-23T06:34:39.794Z,1001.91
2018-03-23T06:36:33.637Z,1001.98
2018-03-23T06:37:33.609Z,1001.94
2018-03-23T06:39:26.990Z,1001.94
2018-03-23T06:40:26.915Z,1001.90
2018-03-23T06:42:20.314Z,1001.91
2018-03-23T06:43:20.221Z,1001.88
2018-03-23T06:45:13.556Z,1001.93
2018-03-23T06:46:13.531Z,1001.90
2018-03-23T06:48:07.905Z,1001.88
2018-03-23T06:49:07.831Z,1001.86
2018-03-23T06:51:05.462Z,1001.88
2018-03-23T06:52:05.436Z,1001.88
2018-03-23T06:53:58.816Z,1001.88
2018-03-23T06:54:58.739Z,1001.87
2018-03-23T06:56:52.080Z,1001.89
2018-03-23T06:57:52.047Z,1001.88
2018-03-23T06:59:45.432Z,1001.87
2018-03-23T07:00:45.354Z,1001.88
2018-03-23T07:02:38.742Z,1001.88
2018-03-23T07:03:38.670Z,1001.89
2018-03-23T07:05:32.013Z,1001.89
2018-03-23T07:06:31.978Z,1001.86
2018-03-23T07:07:31.962Z,1001.84
2018-03-23T07:08:31.944Z,1001.87
2018-03-23T07:09:31.903Z,1001.85
2018-03-23T07:10:31.883Z,1001.85
2018-03-23T07:11:31.854Z,1001.88
2018-03-23T07:12:31.830Z,1001.88
2018-03-23T07:13:31.809Z,1001.86
2018-03-23T07:14:31.789Z,1001.93
2018-03-23T07:15:31.790Z,1001.90
2018-03-23T07:16:31.732Z,1001.88
2018-03-23T07:17:31.710Z,1001.90
2018-03-23T07:18:31.686Z,1001.91
2018-03-23T07:19:31.665Z,1001.91
2018-03-23T07:20:31.643Z,1001.89
2018-03-23T07:21:31.614Z,1001.92
2018-03-23T07:22:31.598Z,1001.95
2018-03-23T07:23:31.568Z,1001.89
2018-03-23T07:24:31.540Z,1001.89
2018-03-23T07:25:31.515Z,1001.84
2018-03-23T07:26:31.489Z,1001.90
2018-03-23T07:27:31.469Z,1001.87
2018-03-23T07:28:31.447Z,1001.85
2018-03-23T07:29:31.418Z,1001.84
2018-03-23T07:30:31.397Z,1001.84
2018-03-23T07:31:31.374Z,1001.85
2018-03-23T07:32:31.345Z,1001.83
2018-03-23T07:33:31.321Z,1001.82
2018-03-23T07:34:31.301Z,1001.82
2018-03-23T07:35:31.273Z,1001.84
2018-03-23T07:36:31.256Z,1001.81
2018-03-23T07:37:31.224Z,1001.81
2018-03-23T07:38:31.200Z,1001.84
2018-03-23T07:39:31.181Z,1001.83
2018-03-23T07:40:31.157Z,1001.81
2018-03-23T07:41:31.128Z,1001.80
2018-03-23T07:42:31.102Z,1001.76
2018-03-23T07:43:31.078Z,1001.79
2018-03-23T07:44:31.061Z,1001.76
2018-03-23T07:45:31.030Z,1001.79
2018-03-23T07:46:31.010Z,1001.79
2018-03-23T07:47:30.983Z,1001.81
2018-03-23T07:48:30.959Z,1001.80
2018-03-23T07:49:30.934Z,1001.74
2018-03-23T07:50:30.911Z,1001.76
2018-03-23T07:51:30.894Z,1001.76
2018-03-23T07:52:30.867Z,1001.75
2018-03-23T07:53:30.835Z,1001.75
2018-03-23T07:54:30.816Z,1001.76
2018-03-23T07:55:30.788Z,1001.77
2018-03-23T07:56:30.777Z,1001.74
2018-03-23T07:57:30.740Z,1001.74
2018-03-23T07:58:30.715Z,1001.73
2018-03-23T07:59:30.693Z,1001.70
2018-03-23T08:00:30.674Z,1001.70
2018-03-23T08:01:30.644Z,1001.68
2018-03-23T08:02:30.621Z,1001.70
2018-03-23T08:03:30.598Z,1001.65
2018-03-23T08:04:30.570Z,1001.67
2018-03-23T08:05:30.553Z,1001.64
2018-03-23T08:06:30.523Z,1001.65
2018-03-23T08:07:30.498Z,1001.65
2018-03-23T08:08:30.473Z,1001.63
2018-03-23T08:09:30.450Z,1001.67
2018-03-23T08:10:30.426Z,1001.66
2018-03-23T08:11:30.402Z,1001.68
2018-03-23T08:12:30.382Z,1001.65
2018-03-23T08:13:30.353Z,1001.65
2018-03-23T08:14:30.329Z,1001.65
2018-03-23T08:15:30.306Z,1001.61
2018-03-23T08:16:30.283Z,1001.60
2018-03-23T08:17:30.258Z,1001.62
2018-03-23T08:18:30.234Z,1001.59
2018-03-23T08:19:30.206Z,1001.57
2018-03-23T08:20:30.185Z,1001.58
2018-03-23T08:21:30.162Z,1001.57
2018-03-23T08:22:30.138Z,1001.56
2018-03-23T08:23:30.112Z,1001.59
2018-03-23T08:24:30.087Z,1001.62
2018-03-23T08:25:30.062Z,1001.65
2018-03-23T08:26:30.039Z,1001.62
2018-03-23T08:27:30.049Z,1001.59
2018-03-23T08:28:30.006Z,1001.62
2018-03-23T08:29:29.968Z,1001.58
2018-03-23T08:30:29.943Z,1001.58
2018-03-23T08:31:29.920Z,1001.59
2018-03-23T08:32:29.894Z,1001.56
2018-03-23T08:33:29.872Z,1001.57
2018-03-23T08:34:29.847Z,1001.52
2018-03-23T08:35:29.825Z,1001.51
2018-03-23T08:36:29.798Z,1001.53
2018-03-23T08:37:29.774Z,1001.47
2018-03-23T08:38:29.751Z,1001.53
2018-03-23T08:39:29.726Z,1001.51
2018-03-23T08:40:29.703Z,1001.47
2018-03-23T08:41:29.798Z,1001.55
2018-03-23T08:42:29.654Z,1001.50
2018-03-23T08:43:29.630Z,1001.50
2018-03-23T08:44:29.619Z,1001.48
2018-03-23T08:45:29.581Z,1001.46
2018-03-23T08:46:29.559Z,1001.52
2018-03-23T08:47:29.535Z,1001.44
2018-03-23T08:48:29.510Z,1001.42
2018-03-23T08:49:29.487Z,1001.42
2018-03-23T08:50:29.467Z,1001.42
2018-03-23T08:51:29.438Z,1001.46
2018-03-23T08:52:29.415Z,1001.45
2018-03-23T08:53:29.447Z,1001.42
2018-03-23T08:54:29.366Z,1001.41
2018-03-23T08:55:29.345Z,1001.40
2018-03-23T08:56:29.324Z,1001.42
2018-03-23T08:57:29.295Z,1001.44
2018-03-23T08:58:29.269Z,1001.36
2018-03-23T08:59:29.249Z,1001.41
2018-03-23T09:00:29.227Z,1001.38
2018-03-23T09:01:29.199Z,1001.39
2018-03-23T09:02:29.176Z,1001.37
2018-03-23T09:03:29.153Z,1001.41
2018-03-23T09:04:29.148Z,1001.36
2018-03-23T09:05:29.127Z,1001.35
2018-03-23T09:06:29.081Z,1001.33
2018-03-23T09:07:29.083Z,1001.33
2018-03-23T09:08:29.034Z,1001.33
2018-03-23T09:09:29.104Z,1001.30
2018-03-23T09:10:29.019Z,1001.31
2018-03-23T09:11:29.015Z,1001.32
2018-03-23T09:12:28.977Z,1001.28
2018-03-23T09:13:28.916Z,1001.30
2018-03-23T09:14:28.902Z,1001.27
2018-03-23T09:15:28.878Z,1001.23
2018-03-23T09:16:28.851Z,1001.23
2018-03-23T09:17:28.828Z,1001.20
2018-03-23T09:18:28.800Z,1001.19
2018-03-23T09:19:28.775Z,1001.19
2018-03-23T09:20:28.757Z,1001.18
2018-03-23T09:21:28.734Z,1001.20
2018-03-23T09:22:28.710Z,1001.16
2018-03-23T09:23:28.680Z,1001.18
2018-03-23T09:24:28.689Z,1001.18
2018-03-23T09:25:28.646Z,1001.18
2018-03-23T09:26:28.621Z,1001.19
2018-03-23T09:27:28.623Z,1001.18
2018-03-23T09:28:28.576Z,1001.16
2018-03-23T09:29:28.541Z,1001.11
2018-03-23T09:30:28.530Z,1001.13
2018-03-23T09:31:28.497Z,1001.08
2018-03-23T09:32:28.479Z,1001.09
2018-03-23T09:33:28.465Z,1001.10
2018-03-23T09:34:28.425Z,1001.04
2018-03-23T09:35:28.407Z,1001.07
2018-03-23T09:36:28.377Z,1001.07
2018-03-23T09:37:28.356Z,1001.06
2018-03-23T09:38:28.333Z,1001.04
2018-03-23T09:39:28.344Z,1001.02
2018-03-23T09:40:28.285Z,1001.05
2018-03-23T09:41:28.258Z,1001.04
2018-03-23T09:42:28.234Z,1000.99
2018-03-23T09:43:28.213Z,1000.97
2018-03-23T09:44:28.199Z,1000.97
2018-03-23T09:45:28.164Z,1000.96
2018-03-23T09:46:28.144Z,1000.98
2018-03-23T09:47:28.119Z,1000.98
2018-03-23T09:48:28.096Z,1000.97
2018-03-23T09:49:28.075Z,1000.95
2018-03-23T09:50:28.074Z,1000.94
2018-03-23T09:51:28.036Z,1000.95
2018-03-23T09:52:28.014Z,1000.95
2018-03-23T09:53:27.979Z,1000.91
2018-03-23T09:54:27.955Z,1000.90
2018-03-23T09:55:27.939Z,1000.88
2018-03-23T09:56:27.908Z,1000.95
2018-03-23T09:57:27.895Z,1000.91
2018-03-23T09:58:27.866Z,1000.91
2018-03-23T09:59:27.866Z,1000.92
2018-03-23T10:00:27.816Z,1000.90
2018-03-23T10:01:27.789Z,1000.90
2018-03-23T10:02:27.770Z,1000.84
2018-03-23T10:03:27.749Z,1000.85
2018-03-23T10:04:27.728Z,1000.83
2018-03-23T10:05:27.712Z,1000.84
2018-03-23T10:06:27.673Z,1000.85
2018-03-23T10:07:27.650Z,1000.85
2018-03-23T10:08:27.634Z,1000.88
2018-03-23T10:09:27.603Z,1000.88
2018-03-23T10:10:27.583Z,1000.89
2018-03-23T10:11:27.558Z,1000.82
2018-03-23T10:12:27.536Z,1000.87
2018-03-23T10:13:27.509Z,1000.86
2018-03-23T10:14:27.485Z,1000.85
2018-03-23T10:15:27.493Z,1000.83
2018-03-23T10:16:27.440Z,1000.83
2018-03-23T10:17:27.418Z,1000.81
2018-03-23T10:18:27.393Z,1000.80
2018-03-23T10:19:27.367Z,1000.80
2018-03-23T10:20:27.345Z,1000.80
2018-03-23T10:21:27.330Z,1000.75
2018-03-23T10:22:27.296Z,1000.73
2018-03-23T10:23:27.272Z,1000.74
2018-03-23T10:24:27.252Z,1000.72
2018-03-23T10:25:27.224Z,1000.71
2018-03-23T10:26:27.204Z,1000.73
2018-03-23T10:27:27.184Z,1000.71
2018-03-23T10:28:27.157Z,1000.71
2018-03-23T10:29:27.134Z,1000.69
2018-03-23T10:30:27.108Z,1000.67
2018-03-23T10:31:27.088Z,1000.64
2018-03-23T10:32:27.063Z,1000.60
2018-03-23T10:33:27.039Z,1000.64
2018-03-23T10:34:27.016Z,1000.63
2018-03-23T10:35:27.005Z,1000.64
2018-03-23T10:36:26.969Z,1000.57
2018-03-23T10:37:26.947Z,1000.59
2018-03-23T10:38:26.922Z,1000.58
2018-03-23T10:39:26.901Z,1000.55
2018-03-23T10:40:26.877Z,1000.55
2018-03-23T10:41:26.854Z,1000.56
2018-03-23T10:42:26.832Z,1000.53
2018-03-23T10:43:26.810Z,1000.53
2018-03-23T10:44:26.784Z,1000.52
2018-03-23T10:45:26.761Z,1000.50
2018-03-23T10:46:26.739Z,1000.49
2018-03-23T10:47:26.714Z,1000.51
2018-03-23T10:48:26.693Z,1000.47
2018-03-23T10:49:26.671Z,1000.45
2018-03-23T10:50:26.648Z,1000.47
2018-03-23T10:51:26.632Z,1000.46
2018-03-23T10:52:26.602Z,1000.46
2018-03-23T10:53:26.631Z,1000.46
2018-03-23T10:54:26.553Z,1000.43
2018-03-23T10:55:26.531Z,1000.47
2018-03-23T10:56:26.509Z,1000.42
2018-03-23T10:57:26.487Z,1000.43
2018-03-23T10:58:26.463Z,1000.39
2018-03-23T10:59:26.439Z,1000.40
2018-03-23T11:00:26.417Z,1000.33
2018-03-23T11:01:26.395Z,1000.34
2018-03-23T11:02:26.374Z,1000.31
2018-03-23T11:03:26.384Z,1000.39
2018-03-23T11:04:26.326Z,1000.33
2018-03-23T11:05:26.304Z,1000.33
2018-03-23T11:06:26.286Z,1000.31
2018-03-23T11:07:26.261Z,1000.32
2018-03-23T11:08:26.247Z,1000.32
2018-03-23T11:09:26.224Z,1000.36
2018-03-23T11:10:26.199Z,1000.32
2018-03-23T11:11:26.179Z,1000.32
2018-03-23T11:12:26.184Z,1000.30
2018-03-23T11:13:26.188Z,1000.24
2018-03-23T11:14:26.112Z,1000.19
2018-03-23T11:15:26.093Z,1000.24
2018-03-23T11:16:26.072Z,1000.19
2018-03-23T11:17:26.052Z,1000.22
2018-03-23T11:18:26.030Z,1000.20
2018-03-23T11:19:26.005Z,1000.14
2018-03-23T11:20:25.986Z,1000.11
2018-03-23T11:21:25.979Z,1000.09
2018-03-23T11:22:25.945Z,1000.11
2018-03-23T11:23:25.922Z,1000.14
2018-03-23T11:24:25.949Z,1000.05
2018-03-23T11:25:25.879Z,1000.01
2018-03-23T11:26:25.867Z,1000.02
2018-03-23T11:27:25.838Z,1000.01
2018-03-23T11:28:25.845Z,1000.00
2018-03-23T11:29:25.794Z,1000.00
2018-03-23T11:30:25.773Z,999.97
2018-03-23T11:31:25.752Z,1000.00
2018-03-23T11:32:25.728Z,1000.00
2018-03-23T11:33:25.714Z,1000.01
2018-03-23T11:34:25.684Z,999.96
2018-03-23T11:35:25.662Z,1000.00
2018-03-23T11:36:25.639Z,1000.01
2018-03-23T11:37:25.618Z,1000.03
2018-03-23T11:38:25.595Z,1000.01
2018-03-23T11:39:25.572Z,999.96
2018-03-23T11:40:25.549Z,1000.00
2018-03-23T11:41:25.529Z,999.95
2018-03-23T11:42:25.504Z,999.99
2018-03-23T11:43:25.481Z,999.99
2018-03-23T11:44:25.471Z,999.89
2018-03-23T11:45:25.445Z,999.92
2018-03-23T11:46:25.420Z,999.89
2018-03-23T11:47:25.399Z,999.82
2018-03-23T11:48:25.376Z,999.84
2018-03-23T11:49:25.344Z,999.81
2018-03-23T11:50:25.334Z,999.76
2018-03-23T11:51:25.302Z,999.73
2018-03-23T11:52:25.285Z,999.78
2018-03-23T11:53:25.255Z,999.78
2018-03-23T11:54:25.238Z,999.74
2018-03-23T11:55:25.210Z,999.70
2018-03-23T11:56:25.302Z,999.71
2018-03-23T11:57:25.169Z,999.74
2018-03-23T11:58:25.143Z,999.77
2018-03-23T11:59:25.118Z,999.76
2018-03-23T12:00:25.099Z,999.75
2018-03-23T12:01:25.082Z,999.75
2018-03-23T12:02:25.061Z,999.81
2018-03-23T12:03:25.040Z,999.73
2018-03-23T12:04:25.005Z,999.71
2018-03-23T12:05:24.990Z,999.69
2018-03-23T12:06:24.961Z,999.69
2018-03-23T12:07:24.962Z,999.69
2018-03-23T12:08:24.940Z,999.60
2018-03-23T12:09:24.895Z,999.59
2018-03-23T12:10:24.870Z,999.55
2018-03-23T12:11:24.856Z,999.55
2018-03-23T12:12:24.826Z,999.46
2018-03-23T12:13:24.802Z,999.44
2018-03-23T12:14:24.785Z,999.49
2018-03-23T12:15:24.759Z,999.43
2018-03-23T12:16:24.733Z,999.48
2018-03-23T12:17:24.712Z,999.43
2018-03-23T12:18:24.688Z,999.47
2018-03-23T12:19:24.665Z,999.48
2018-03-23T12:20:24.641Z,999.49
2018-03-23T12:21:24.618Z,999.46
2018-03-23T12:22:24.595Z,999.42
2018-03-23T12:23:24.574Z,999.44
2018-03-23T12:24:24.553Z,999.41
2018-03-23T12:25:24.526Z,999.31
2018-03-23T12:26:24.516Z,999.32
2018-03-23T12:27:24.542Z,999.31
2018-03-23T12:28:24.460Z,999.30
2018-03-23T12:29:24.435Z,999.28
2018-03-23T12:30:24.418Z,999.27
2018-03-23T12:31:24.389Z,999.26
2018-03-23T12:32:24.367Z,999.26
2018-03-23T12:33:24.398Z,999.27
2018-03-23T12:34:24.322Z,999.23
2018-03-23T12:35:24.307Z,999.24
2018-03-23T12:36:24.278Z,999.22
2018-03-23T12:37:24.253Z,999.25
2018-03-23T12:38:24.230Z,999.23
2018-03-23T12:39:24.207Z,999.16
2018-03-23T12:40:24.188Z,999.17
2018-03-23T12:41:24.162Z,999.23
2018-03-23T12:42:24.140Z,999.20
2018-03-23T12:43:24.156Z,999.17
2018-03-23T12:44:24.099Z,999.12
2018-03-23T12:45:24.071Z,999.13
2018-03-23T12:46:24.048Z,999.17
2018-03-23T12:47:24.043Z,999.11
2018-03-23T12:48:24.004Z,999.12
2018-03-23T12:49:23.978Z,999.12
2018-03-23T12:50:23.958Z,999.07
2018-03-23T12:51:23.935Z,999.05
2018-03-23T12:52:23.915Z,999.05
2018-03-23T12:53:23.887Z,999.05
2018-03-23T12:54:23.866Z,999.03
2018-03-23T12:55:23.846Z,999.06
2018-03-23T12:56:23.821Z,999.06
2018-03-23T12:57:23.796Z,999.06
2018-03-23T12:58:23.776Z,999.03
2018-03-23T12:59:23.752Z,999.04
2018-03-23T13:00:23.732Z,999.05
2018-03-23T13:01:23.706Z,998.95
2018-03-23T13:02:23.684Z,998.95
2018-03-23T13:03:23.661Z,998.96
2018-03-23T13:04:23.640Z,998.90
2018-03-23T13:05:23.614Z,998.93
2018-03-23T13:06:23.592Z,998.92
2018-03-23T13:07:23.570Z,998.91
2018-03-23T13:08:23.552Z,998.91
2018-03-23T13:09:23.530Z,998.89
2018-03-23T13:10:23.499Z,998.83
2018-03-23T13:11:23.477Z,998.84
2018-03-23T13:12:23.455Z,998.82
2018-03-23T13:13:23.433Z,998.82
2018-03-23T13:14:23.411Z,998.80
2018-03-23T13:15:23.387Z,998.82
2018-03-23T13:16:23.384Z,998.86
2018-03-23T13:17:23.341Z,998.87
2018-03-23T13:18:23.328Z,998.88
2018-03-23T13:19:23.297Z,998.86
2018-03-23T13:20:23.271Z,998.87
2018-03-23T13:21:23.252Z,998.85
2018-03-23T13:22:23.226Z,998.85
2018-03-23T13:23:23.204Z,998.78
2018-03-23T13:24:23.182Z,998.79
2018-03-23T13:25:23.157Z,998.82
2018-03-23T13:26:23.133Z,998.77
2018-03-23T13:27:23.110Z,998.80
2018-03-23T13:28:23.088Z,998.79
2018-03-23T13:29:23.073Z,998.77
2018-03-23T13:30:23.044Z,998.76
2018-03-23T13:31:23.019Z,998.75
2018-03-23T13:32:22.997Z,998.75
2018-03-23T13:33:22.973Z,998.73
2018-03-23T13:34:22.948Z,998.69
2018-03-23T13:35:22.928Z,998.70
2018-03-23T13:36:22.910Z,998.63
2018-03-23T13:37:22.881Z,998.68
2018-03-23T13:38:22.861Z,998.63
2018-03-23T13:39:22.835Z,998.62
2018-03-23T13:40:22.819Z,998.64
2018-03-23T13:41:22.792Z,998.62
2018-03-23T13:42:22.768Z,998.65
2018-03-23T13:43:22.753Z,998.62
2018-03-23T13:44:22.721Z,998.63
2018-03-23T13:45:22.698Z,998.61
2018-03-23T13:46:22.675Z,998.58
2018-03-23T13:47:22.654Z,998.62
2018-03-23T13:48:22.630Z,998.59
2018-03-23T13:49:22.610Z,998.62
2018-03-23T13:50:22.646Z,998.60
2018-03-23T13:51:22.562Z,998.54
2018-03-23T13:52:22.596Z,998.55
2018-03-23T13:53:22.530Z,998.57
2018-03-23T13:54:22.532Z,998.57
2018-03-23T13:55:22.485Z,998.51
2018-03-23T13:56:22.454Z,998.57
2018-03-23T13:57:22.424Z,998.51
2018-03-23T13:58:22.400Z,998.55
2018-03-23T13:59:22.381Z,998.57
2018-03-23T14:00:22.398Z,998.55
2018-03-23T14:01:22.357Z,998.55
2018-03-23T14:02:22.309Z,998.54
2018-03-23T14:03:22.341Z,998.58
2018-03-23T14:04:22.276Z,998.54
2018-03-23T14:05:22.241Z,998.52
2018-03-23T14:06:22.219Z,998.53
2018-03-23T14:07:22.201Z,998.46
2018-03-23T14:08:22.174Z,998.46
2018-03-23T14:09:22.151Z,998.46
2018-03-23T14:10:22.128Z,998.50
2018-03-23T14:11:22.108Z,998.40
2018-03-23T14:12:22.082Z,998.56
2018-03-23T14:13:22.091Z,998.46
2018-03-23T14:14:22.037Z,998.48
2018-03-23T14:15:22.015Z,998.42
2018-03-23T14:16:21.990Z,998.43
2018-03-23T14:17:21.978Z,998.41
2018-03-23T14:18:21.959Z,998.43
2018-03-23T14:19:21.923Z,998.40
2018-03-23T14:20:21.899Z,998.42
2018-03-23T14:22:43.447Z,998.41